sensor_id;sensor_type;location;lat;lon;timestamp;pressure;altitude;pressure_sealevel;temperature;humidity
82171;BME280;71755;48.038;14.346;2023-08-24T00:01:50;97608.16;;;21.01;85.71
82171;BME280;71755;48.038;14.346;2023-08-24T00:04:23;97612.25;;;20.90;86.24
82171;BME280;71755;48.038;14.346;2023-08-24T00:06:50;97608.88;;;20.84;86.59
82171;BME280;71755;48.038;14.346;2023-08-24T00:09:24;97617.31;;;20.83;86.83
82171;BME280;71755;48.038;14.346;2023-08-24T00:12:06;97603.44;;;20.84;86.87
82171;BME280;71755;48.038;14.346;2023-08-24T00:14:43;97614.56;;;21.05;86.03
82171;BME280;71755;48.038;14.346;2023-08-24T00:17:09;97612.88;;;21.18;85.26
82171;BME280;71755;48.038;14.346;2023-08-24T00:19:35;97613.28;;;21.25;83.62
82171;BME280;71755;48.038;14.346;2023-08-24T00:22:02;97606.78;;;21.35;82.83
82171;BME280;71755;48.038;14.346;2023-08-24T00:24:35;97607.91;;;21.42;82.31
82171;BME280;71755;48.038;14.346;2023-08-24T00:27:07;97614.31;;;21.46;81.90
82171;BME280;71755;48.038;14.346;2023-08-24T00:29:39;97603.13;;;21.48;81.75
82171;BME280;71755;48.038;14.346;2023-08-24T00:32:22;97605.53;;;21.49;81.29
82171;BME280;71755;48.038;14.346;2023-08-24T00:34:49;97606.66;;;21.48;81.45
82171;BME280;71755;48.038;14.346;2023-08-24T00:37:19;97605.22;;;21.51;81.68
82171;BME280;71755;48.038;14.346;2023-08-24T00:39:45;97605.84;;;21.48;81.80
82171;BME280;71755;48.038;14.346;2023-08-24T00:42:12;97605.84;;;21.48;81.08
82171;BME280;71755;48.038;14.346;2023-08-24T00:44:43;97608.09;;;21.46;80.86
82171;BME280;71755;48.038;14.346;2023-08-24T00:47:12;97601.50;;;21.38;81.28
82171;BME280;71755;48.038;14.346;2023-08-24T00:49:39;97595.97;;;21.52;80.94
82171;BME280;71755;48.038;14.346;2023-08-24T00:52:15;97602.94;;;21.36;81.64
82171;BME280;71755;48.038;14.346;2023-08-24T00:54:49;97602.31;;;21.39;81.44
82171;BME280;71755;48.038;14.346;2023-08-24T00:57:15;97600.88;;;21.41;81.28
82171;BME280;71755;48.038;14.346;2023-08-24T00:59:42;97598.47;;;21.40;81.73
82171;BME280;71755;48.038;14.346;2023-08-24T01:02:24;97591.94;;;21.49;81.70
82171;BME280;71755;48.038;14.346;2023-08-24T01:04:49;97598.19;;;21.50;81.51
82171;BME280;71755;48.038;14.346;2023-08-24T01:07:17;97588.44;;;21.49;81.55
82171;BME280;71755;48.038;14.346;2023-08-24T01:09:56;97595.63;;;21.45;80.89
82171;BME280;71755;48.038;14.346;2023-08-24T01:12:31;97587.94;;;21.47;80.69
82171;BME280;71755;48.038;14.346;2023-08-24T01:17:50;97593.31;;;21.30;81.16
82171;BME280;71755;48.038;14.346;2023-08-24T01:20:23;97587.88;;;21.30;81.35
82171;BME280;71755;48.038;14.346;2023-08-24T01:26:17;97589.81;;;21.29;80.13
82171;BME280;71755;48.038;14.346;2023-08-24T01:29:04;97582.94;;;21.32;80.74
82171;BME280;71755;48.038;14.346;2023-08-24T01:31:48;97590.13;;;21.28;81.42
82171;BME280;71755;48.038;14.346;2023-08-24T01:34:16;97586.28;;;21.29;81.50
82171;BME280;71755;48.038;14.346;2023-08-24T01:36:44;97595.41;;;21.33;81.67
82171;BME280;71755;48.038;14.346;2023-08-24T01:39:18;97591.88;;;21.24;81.75
82171;BME280;71755;48.038;14.346;2023-08-24T01:41:49;97592.88;;;21.14;82.04
82171;BME280;71755;48.038;14.346;2023-08-24T01:44:25;97597.38;;;21.18;80.64
82171;BME280;71755;48.038;14.346;2023-08-24T01:47:01;97588.63;;;21.21;80.21
82171;BME280;71755;48.038;14.346;2023-08-24T01:49:36;97590.34;;;21.17;81.24
82171;BME280;71755;48.038;14.346;2023-08-24T01:52:23;97589.28;;;20.96;81.58
82171;BME280;71755;48.038;14.346;2023-08-24T01:54:55;97585.19;;;21.07;81.25
82171;BME280;71755;48.038;14.346;2023-08-24T01:57:21;97587.41;;;21.05;80.21
82171;BME280;71755;48.038;14.346;2023-08-24T01:59:51;97576.50;;;20.97;80.26
82171;BME280;71755;48.038;14.346;2023-08-24T02:02:17;97577.31;;;20.97;81.53
82171;BME280;71755;48.038;14.346;2023-08-24T02:04:50;97572.00;;;20.92;81.71
82171;BME280;71755;48.038;14.346;2023-08-24T02:07:23;97573.00;;;20.74;82.70
82171;BME280;71755;48.038;14.346;2023-08-24T02:10:04;97570.03;;;20.84;82.61
82171;BME280;71755;48.038;14.346;2023-08-24T02:12:38;97569.91;;;20.89;82.48
82171;BME280;71755;48.038;14.346;2023-08-24T02:15:23;97570.63;;;20.81;83.14
82171;BME280;71755;48.038;14.346;2023-08-24T02:17:54;97564.63;;;20.84;83.07
82171;BME280;71755;48.038;14.346;2023-08-24T02:20:23;97568.13;;;20.84;82.76
82171;BME280;71755;48.038;14.346;2023-08-24T02:23:03;97565.41;;;20.84;82.98
82171;BME280;71755;48.038;14.346;2023-08-24T02:25:31;97560.03;;;20.93;82.53
82171;BME280;71755;48.038;14.346;2023-08-24T02:28:05;97560.25;;;21.05;81.68
82171;BME280;71755;48.038;14.346;2023-08-24T02:30:37;97561.22;;;21.09;81.40
82171;BME280;71755;48.038;14.346;2023-08-24T02:33:08;97571.59;;;21.07;81.71
82171;BME280;71755;48.038;14.346;2023-08-24T02:35:38;97562.81;;;21.10;81.24
82171;BME280;71755;48.038;14.346;2023-08-24T02:38:07;97569.19;;;21.06;81.51
82171;BME280;71755;48.038;14.346;2023-08-24T02:40:43;97563.94;;;21.09;81.64
82171;BME280;71755;48.038;14.346;2023-08-24T02:43:11;97567.28;;;21.06;81.57
82171;BME280;71755;48.038;14.346;2023-08-24T02:45:39;97570.13;;;21.01;81.90
82171;BME280;71755;48.038;14.346;2023-08-24T02:48:06;97570.94;;;21.02;81.16
82171;BME280;71755;48.038;14.346;2023-08-24T02:50:31;97569.03;;;21.02;80.74
82171;BME280;71755;48.038;14.346;2023-08-24T02:53:01;97566.75;;;20.73;81.59
82171;BME280;71755;48.038;14.346;2023-08-24T02:55:47;97577.44;;;20.70;81.27
82171;BME280;71755;48.038;14.346;2023-08-24T02:58:23;97583.44;;;20.58;81.46
82171;BME280;71755;48.038;14.346;2023-08-24T03:00:52;97578.75;;;20.50;81.91
82171;BME280;71755;48.038;14.346;2023-08-24T03:03:24;97572.03;;;20.47;81.61
82171;BME280;71755;48.038;14.346;2023-08-24T03:05:58;97581.88;;;20.43;81.95
82171;BME280;71755;48.038;14.346;2023-08-24T03:08:27;97576.16;;;20.45;82.47
82171;BME280;71755;48.038;14.346;2023-08-24T03:11:12;97580.97;;;20.34;82.51
82171;BME280;71755;48.038;14.346;2023-08-24T03:14:01;97585.47;;;20.52;81.18
82171;BME280;71755;48.038;14.346;2023-08-24T03:16:27;97579.78;;;20.63;80.79
82171;BME280;71755;48.038;14.346;2023-08-24T03:19:00;97579.00;;;20.62;81.07
82171;BME280;71755;48.038;14.346;2023-08-24T03:21:26;97574.22;;;20.68;81.35
82171;BME280;71755;48.038;14.346;2023-08-24T03:24:06;97579.84;;;20.71;81.01
82171;BME280;71755;48.038;14.346;2023-08-24T03:26:35;97576.75;;;20.64;81.71
82171;BME280;71755;48.038;14.346;2023-08-24T03:29:02;97577.81;;;20.54;82.25
82171;BME280;71755;48.038;14.346;2023-08-24T03:31:35;97587.06;;;20.53;82.32
82171;BME280;71755;48.038;14.346;2023-08-24T03:34:04;97585.66;;;20.56;81.84
82171;BME280;71755;48.038;14.346;2023-08-24T03:36:52;97590.78;;;20.57;81.39
82171;BME280;71755;48.038;14.346;2023-08-24T03:39:20;97587.75;;;20.59;81.25
82171;BME280;71755;48.038;14.346;2023-08-24T03:41:46;97591.88;;;20.56;81.26
82171;BME280;71755;48.038;14.346;2023-08-24T03:44:15;97590.78;;;20.57;80.91
82171;BME280;71755;48.038;14.346;2023-08-24T03:46:42;97584.06;;;20.55;81.16
82171;BME280;71755;48.038;14.346;2023-08-24T03:49:09;97582.13;;;20.55;81.34
82171;BME280;71755;48.038;14.346;2023-08-24T03:51:36;97583.69;;;20.48;81.99
82171;BME280;71755;48.038;14.346;2023-08-24T03:54:03;97580.03;;;20.39;81.58
82171;BME280;71755;48.038;14.346;2023-08-24T03:56:31;97585.19;;;20.40;81.32
82171;BME280;71755;48.038;14.346;2023-08-24T03:58:56;97582.66;;;20.44;81.19
82171;BME280;71755;48.038;14.346;2023-08-24T04:01:22;97583.50;;;20.44;81.16
82171;BME280;71755;48.038;14.346;2023-08-24T04:03:48;97591.03;;;20.47;81.40
82171;BME280;71755;48.038;14.346;2023-08-24T04:06:14;97592.72;;;20.43;81.46
82171;BME280;71755;48.038;14.346;2023-08-24T04:08:40;97593.13;;;20.50;80.72
82171;BME280;71755;48.038;14.346;2023-08-24T04:11:05;97591.53;;;20.49;80.56
82171;BME280;71755;48.038;14.346;2023-08-24T04:13:31;97600.34;;;20.55;80.38
82171;BME280;71755;48.038;14.346;2023-08-24T04:15:57;97591.28;;;20.59;79.92
82171;BME280;71755;48.038;14.346;2023-08-24T04:18:24;97592.31;;;20.50;80.72
82171;BME280;71755;48.038;14.346;2023-08-24T04:20:52;97588.81;;;20.49;80.96
82171;BME280;71755;48.038;14.346;2023-08-24T04:23:24;97596.16;;;20.49;80.85
82171;BME280;71755;48.038;14.346;2023-08-24T04:25:51;97600.28;;;20.46;80.93
82171;BME280;71755;48.038;14.346;2023-08-24T04:28:17;97595.97;;;20.45;80.83
82171;BME280;71755;48.038;14.346;2023-08-24T04:30:53;97600.69;;;20.40;80.77
82171;BME280;71755;48.038;14.346;2023-08-24T04:33:20;97605.38;;;20.34;81.23
82171;BME280;71755;48.038;14.346;2023-08-24T04:35:47;97600.88;;;20.29;81.70
82171;BME280;71755;48.038;14.346;2023-08-24T04:38:16;97597.59;;;20.19;81.97
82171;BME280;71755;48.038;14.346;2023-08-24T04:40:53;97596.13;;;20.13;81.92
82171;BME280;71755;48.038;14.346;2023-08-24T04:43:22;97595.78;;;20.28;81.77
82171;BME280;71755;48.038;14.346;2023-08-24T04:45:50;97605.38;;;20.34;81.28
82171;BME280;71755;48.038;14.346;2023-08-24T04:48:20;97610.63;;;20.30;82.92
82171;BME280;71755;48.038;14.346;2023-08-24T04:50:47;97608.47;;;20.05;85.09
82171;BME280;71755;48.038;14.346;2023-08-24T04:53:17;97605.44;;;20.07;84.82
82171;BME280;71755;48.038;14.346;2023-08-24T04:55:44;97609.88;;;20.03;85.02
82171;BME280;71755;48.038;14.346;2023-08-24T04:58:11;97603.84;;;20.19;84.47
82171;BME280;71755;48.038;14.346;2023-08-24T05:00:39;97604.59;;;20.34;83.21
82171;BME280;71755;48.038;14.346;2023-08-24T05:03:06;97603.56;;;20.43;82.83
82171;BME280;71755;48.038;14.346;2023-08-24T05:05:33;97611.50;;;20.53;81.83
82171;BME280;71755;48.038;14.346;2023-08-24T05:08:04;97619.47;;;20.50;82.79
82171;BME280;71755;48.038;14.346;2023-08-24T05:10:38;97610.41;;;20.54;82.90
82171;BME280;71755;48.038;14.346;2023-08-24T05:13:04;97607.56;;;20.59;82.96
82171;BME280;71755;48.038;14.346;2023-08-24T05:15:38;97609.03;;;20.66;82.81
82171;BME280;71755;48.038;14.346;2023-08-24T05:18:10;97610.63;;;20.67;82.66
82171;BME280;71755;48.038;14.346;2023-08-24T05:20:36;97609.53;;;20.68;82.83
82171;BME280;71755;48.038;14.346;2023-08-24T05:23:12;97605.38;;;20.70;82.92
82171;BME280;71755;48.038;14.346;2023-08-24T05:25:39;97599.16;;;20.70;83.26
82171;BME280;71755;48.038;14.346;2023-08-24T05:28:05;97602.25;;;20.77;82.89
82171;BME280;71755;48.038;14.346;2023-08-24T05:30:39;97600.63;;;20.76;83.05
82171;BME280;71755;48.038;14.346;2023-08-24T05:33:06;97595.16;;;20.67;83.74
82171;BME280;71755;48.038;14.346;2023-08-24T05:35:48;97594.41;;;20.75;83.16
82171;BME280;71755;48.038;14.346;2023-08-24T05:38:22;97599.53;;;20.77;83.78
82171;BME280;71755;48.038;14.346;2023-08-24T05:40:54;97595.28;;;20.84;83.62
82171;BME280;71755;48.038;14.346;2023-08-24T05:43:23;97601.56;;;20.94;83.42
82171;BME280;71755;48.038;14.346;2023-08-24T05:45:48;97596.81;;;20.99;83.01
82171;BME280;71755;48.038;14.346;2023-08-24T05:48:16;97592.66;;;21.02;82.80
82171;BME280;71755;48.038;14.346;2023-08-24T05:50:46;97595.06;;;21.03;83.10
82171;BME280;71755;48.038;14.346;2023-08-24T05:53:17;97603.69;;;21.05;83.45
82171;BME280;71755;48.038;14.346;2023-08-24T05:55:45;97602.59;;;21.06;84.09
82171;BME280;71755;48.038;14.346;2023-08-24T05:58:19;97605.47;;;21.10;84.12
82171;BME280;71755;48.038;14.346;2023-08-24T06:00:45;97606.91;;;21.07;85.03
82171;BME280;71755;48.038;14.346;2023-08-24T06:03:21;97604.06;;;21.12;85.08
82171;BME280;71755;48.038;14.346;2023-08-24T06:05:49;97609.88;;;21.19;84.43
82171;BME280;71755;48.038;14.346;2023-08-24T06:08:23;97610.88;;;21.24;84.87
82171;BME280;71755;48.038;14.346;2023-08-24T06:11:15;97605.31;;;21.29;84.87
82171;BME280;71755;48.038;14.346;2023-08-24T06:13:41;97616.97;;;21.29;85.34
82171;BME280;71755;48.038;14.346;2023-08-24T06:16:10;97616.53;;;21.36;84.99
82171;BME280;71755;48.038;14.346;2023-08-24T06:18:36;97600.56;;;21.43;85.17
82171;BME280;71755;48.038;14.346;2023-08-24T06:21:06;97609.53;;;21.52;84.92
82171;BME280;71755;48.038;14.346;2023-08-24T06:23:39;97606.56;;;21.62;84.29
82171;BME280;71755;48.038;14.346;2023-08-24T06:26:08;97608.16;;;21.63;85.00
82171;BME280;71755;48.038;14.346;2023-08-24T06:28:35;97605.16;;;21.73;84.56
82171;BME280;71755;48.038;14.346;2023-08-24T06:31:05;97598.44;;;21.79;84.46
82171;BME280;71755;48.038;14.346;2023-08-24T06:33:51;97595.59;;;21.84;84.55
82171;BME280;71755;48.038;14.346;2023-08-24T06:36:20;97596.06;;;21.87;84.05
82171;BME280;71755;48.038;14.346;2023-08-24T06:38:50;97595.91;;;21.92;83.59
82171;BME280;71755;48.038;14.346;2023-08-24T06:41:16;97597.88;;;22.00;82.63
82171;BME280;71755;48.038;14.346;2023-08-24T06:43:50;97606.88;;;22.09;82.40
82171;BME280;71755;48.038;14.346;2023-08-24T06:46:18;97610.09;;;22.20;82.54
82171;BME280;71755;48.038;14.346;2023-08-24T06:48:45;97601.94;;;22.28;82.05
82171;BME280;71755;48.038;14.346;2023-08-24T06:51:12;97597.94;;;22.34;81.84
82171;BME280;71755;48.038;14.346;2023-08-24T06:53:48;97597.94;;;22.43;81.82
82171;BME280;71755;48.038;14.346;2023-08-24T06:56:14;97600.50;;;22.48;81.52
82171;BME280;71755;48.038;14.346;2023-08-24T06:58:48;97597.28;;;22.55;81.11
82171;BME280;71755;48.038;14.346;2023-08-24T07:01:16;97597.94;;;22.60;81.10
82171;BME280;71755;48.038;14.346;2023-08-24T07:03:47;97603.06;;;22.70;80.74
82171;BME280;71755;48.038;14.346;2023-08-24T07:06:14;97598.28;;;22.85;80.89
82171;BME280;71755;48.038;14.346;2023-08-24T07:08:52;97595.34;;;22.98;80.70
82171;BME280;71755;48.038;14.346;2023-08-24T07:11:19;97601.28;;;23.00;79.72
82171;BME280;71755;48.038;14.346;2023-08-24T07:13:47;97596.28;;;23.02;80.00
82171;BME280;71755;48.038;14.346;2023-08-24T07:16:14;97588.91;;;23.12;79.55
82171;BME280;71755;48.038;14.346;2023-08-24T07:18:40;97593.88;;;23.18;78.63
82171;BME280;71755;48.038;14.346;2023-08-24T07:21:05;97587.25;;;23.28;78.26
82171;BME280;71755;48.038;14.346;2023-08-24T07:23:33;97582.88;;;23.44;77.80
82171;BME280;71755;48.038;14.346;2023-08-24T07:25:59;97589.94;;;23.45;77.17
82171;BME280;71755;48.038;14.346;2023-08-24T07:28:27;97601.63;;;23.46;77.82
82171;BME280;71755;48.038;14.346;2023-08-24T07:30:55;97588.47;;;23.56;76.98
82171;BME280;71755;48.038;14.346;2023-08-24T07:33:23;97589.25;;;23.57;77.85
82171;BME280;71755;48.038;14.346;2023-08-24T07:36:06;97587.34;;;23.57;77.40
82171;BME280;71755;48.038;14.346;2023-08-24T07:38:38;97580.03;;;23.70;76.95
82171;BME280;71755;48.038;14.346;2023-08-24T07:41:04;97581.44;;;23.76;76.52
82171;BME280;71755;48.038;14.346;2023-08-24T07:43:39;97577.44;;;23.82;76.47
82171;BME280;71755;48.038;14.346;2023-08-24T07:46:09;97577.31;;;23.99;75.35
82171;BME280;71755;48.038;14.346;2023-08-24T07:48:46;97579.84;;;24.05;75.57
82171;BME280;71755;48.038;14.346;2023-08-24T07:51:15;97575.59;;;24.16;74.91
82171;BME280;71755;48.038;14.346;2023-08-24T07:56:46;97559.78;;;24.30;75.08
82171;BME280;71755;48.038;14.346;2023-08-24T07:59:15;97556.31;;;24.42;74.14
82171;BME280;71755;48.038;14.346;2023-08-24T08:01:57;97562.03;;;24.49;72.85
82171;BME280;71755;48.038;14.346;2023-08-24T08:07:49;97559.38;;;24.61;72.91
82171;BME280;71755;48.038;14.346;2023-08-24T08:10:17;97556.88;;;24.68;72.26
82171;BME280;71755;48.038;14.346;2023-08-24T08:12:47;97559.53;;;24.77;72.30
82171;BME280;71755;48.038;14.346;2023-08-24T08:15:13;97559.44;;;24.85;73.10
82171;BME280;71755;48.038;14.346;2023-08-24T08:17:40;97565.03;;;24.89;74.06
82171;BME280;71755;48.038;14.346;2023-08-24T08:20:08;97561.81;;;25.08;73.32
82171;BME280;71755;48.038;14.346;2023-08-24T08:22:37;97571.56;;;24.97;73.14
82171;BME280;71755;48.038;14.346;2023-08-24T08:25:11;97565.22;;;25.05;73.06
82171;BME280;71755;48.038;14.346;2023-08-24T08:28:07;97575.88;;;25.31;71.75
82171;BME280;71755;48.038;14.346;2023-08-24T08:30:36;97571.53;;;25.42;72.61
82171;BME280;71755;48.038;14.346;2023-08-24T08:33:22;97570.19;;;25.48;71.94
82171;BME280;71755;48.038;14.346;2023-08-24T08:35:58;97567.91;;;25.62;70.87
82171;BME280;71755;48.038;14.346;2023-08-24T08:38:34;97568.13;;;25.94;70.64
82171;BME280;71755;48.038;14.346;2023-08-24T08:41:17;97564.59;;;26.05;69.93
82171;BME280;71755;48.038;14.346;2023-08-24T08:44:04;97562.28;;;26.20;69.94
82171;BME280;71755;48.038;14.346;2023-08-24T08:46:34;97560.56;;;26.39;67.22
82171;BME280;71755;48.038;14.346;2023-08-24T08:49:23;97552.63;;;26.50;68.33
82171;BME280;71755;48.038;14.346;2023-08-24T08:51:51;97551.50;;;26.51;68.11
82171;BME280;71755;48.038;14.346;2023-08-24T08:54:23;97555.31;;;26.62;67.79
82171;BME280;71755;48.038;14.346;2023-08-24T08:56:50;97553.22;;;26.71;69.39
82171;BME280;71755;48.038;14.346;2023-08-24T08:59:17;97554.47;;;26.74;68.21
82171;BME280;71755;48.038;14.346;2023-08-24T09:05:03;97549.28;;;26.85;67.69
82171;BME280;71755;48.038;14.346;2023-08-24T09:07:34;97545.78;;;27.00;67.38
82171;BME280;71755;48.038;14.346;2023-08-24T09:10:00;97533.84;;;27.08;67.38
82171;BME280;71755;48.038;14.346;2023-08-24T09:12:34;97528.38;;;27.39;67.63
82171;BME280;71755;48.038;14.346;2023-08-24T09:15:07;97538.75;;;27.30;67.49
82171;BME280;71755;48.038;14.346;2023-08-24T09:17:49;97533.59;;;27.45;67.52
82171;BME280;71755;48.038;14.346;2023-08-24T09:20:15;97534.16;;;27.66;66.28
82171;BME280;71755;48.038;14.346;2023-08-24T09:22:42;97531.22;;;27.75;66.22
82171;BME280;71755;48.038;14.346;2023-08-24T09:25:10;97525.59;;;27.87;66.54
82171;BME280;71755;48.038;14.346;2023-08-24T09:27:41;97524.63;;;27.79;65.66
82171;BME280;71755;48.038;14.346;2023-08-24T09:30:11;97529.13;;;27.87;66.89
82171;BME280;71755;48.038;14.346;2023-08-24T09:32:37;97521.78;;;27.91;66.42
82171;BME280;71755;48.038;14.346;2023-08-24T09:35:10;97523.03;;;27.94;65.68
82171;BME280;71755;48.038;14.346;2023-08-24T09:37:42;97523.47;;;28.15;63.72
82171;BME280;71755;48.038;14.346;2023-08-24T09:40:13;97527.00;;;28.16;64.54
82171;BME280;71755;48.038;14.346;2023-08-24T09:42:43;97524.09;;;28.24;64.00
82171;BME280;71755;48.038;14.346;2023-08-24T09:45:16;97510.06;;;28.49;62.50
82171;BME280;71755;48.038;14.346;2023-08-24T09:50:42;97504.94;;;28.47;62.77
82171;BME280;71755;48.038;14.346;2023-08-24T09:53:23;97505.66;;;28.63;62.44
82171;BME280;71755;48.038;14.346;2023-08-24T09:56:13;97503.53;;;28.76;59.35
82171;BME280;71755;48.038;14.346;2023-08-24T09:58:40;97492.00;;;28.90;60.65
82171;BME280;71755;48.038;14.346;2023-08-24T10:01:23;97492.22;;;29.01;60.02
82171;BME280;71755;48.038;14.346;2023-08-24T10:04:07;97483.19;;;29.00;60.79
82171;BME280;71755;48.038;14.346;2023-08-24T10:06:42;97485.84;;;29.19;59.18
82171;BME280;71755;48.038;14.346;2023-08-24T10:09:18;97481.94;;;29.20;59.95
82171;BME280;71755;48.038;14.346;2023-08-24T10:12:09;97465.94;;;29.30;60.37
82171;BME280;71755;48.038;14.346;2023-08-24T10:15:09;97466.78;;;29.07;61.78
82171;BME280;71755;48.038;14.346;2023-08-24T10:17:55;97468.97;;;29.21;59.45
82171;BME280;71755;48.038;14.346;2023-08-24T10:20:23;97463.19;;;29.52;59.58
82171;BME280;71755;48.038;14.346;2023-08-24T10:22:50;97463.53;;;29.47;58.52
82171;BME280;71755;48.038;14.346;2023-08-24T10:25:19;97454.75;;;29.68;57.13
82171;BME280;71755;48.038;14.346;2023-08-24T10:27:49;97448.72;;;29.85;57.10
82171;BME280;71755;48.038;14.346;2023-08-24T10:30:23;97447.66;;;29.67;57.71
82171;BME280;71755;48.038;14.346;2023-08-24T10:32:54;97444.03;;;29.90;56.87
82171;BME280;71755;48.038;14.346;2023-08-24T10:35:24;97437.44;;;29.68;58.52
82171;BME280;71755;48.038;14.346;2023-08-24T10:38:00;97433.78;;;29.86;56.63
82171;BME280;71755;48.038;14.346;2023-08-24T10:40:43;97435.13;;;30.00;55.75
82171;BME280;71755;48.038;14.346;2023-08-24T10:43:22;97428.03;;;29.99;57.50
82171;BME280;71755;48.038;14.346;2023-08-24T10:45:59;97428.25;;;30.13;56.19
82171;BME280;71755;48.038;14.346;2023-08-24T10:51:21;97421.72;;;30.28;56.15
82171;BME280;71755;48.038;14.346;2023-08-24T10:54:02;97415.13;;;30.40;56.51
82171;BME280;71755;48.038;14.346;2023-08-24T10:56:40;97422.28;;;30.44;56.31
82171;BME280;71755;48.038;14.346;2023-08-24T10:59:16;97421.28;;;30.60;55.34
82171;BME280;71755;48.038;14.346;2023-08-24T11:02:00;97418.22;;;30.68;54.35
82171;BME280;71755;48.038;14.346;2023-08-24T11:04:27;97421.97;;;30.90;53.37
82171;BME280;71755;48.038;14.346;2023-08-24T11:06:58;97417.34;;;31.05;52.47
82171;BME280;71755;48.038;14.346;2023-08-24T11:09:45;97416.97;;;31.06;53.04
82171;BME280;71755;48.038;14.346;2023-08-24T11:12:14;97409.81;;;30.98;53.06
82171;BME280;71755;48.038;14.346;2023-08-24T11:15:06;97414.22;;;31.10;53.75
82171;BME280;71755;48.038;14.346;2023-08-24T11:18:24;97411.50;;;31.14;51.01
82171;BME280;71755;48.038;14.346;2023-08-24T11:21:20;97412.34;;;31.18;52.31
82171;BME280;71755;48.038;14.346;2023-08-24T11:23:50;97412.06;;;31.30;50.97
82171;BME280;71755;48.038;14.346;2023-08-24T11:26:16;97410.19;;;31.48;51.18
82171;BME280;71755;48.038;14.346;2023-08-24T11:31:58;97397.13;;;31.38;51.60
82171;BME280;71755;48.038;14.346;2023-08-24T11:34:38;97401.38;;;31.25;53.67
82171;BME280;71755;48.038;14.346;2023-08-24T11:37:07;97397.66;;;31.61;52.35
82171;BME280;71755;48.038;14.346;2023-08-24T11:39:45;97390.47;;;31.50;50.85
82171;BME280;71755;48.038;14.346;2023-08-24T11:42:11;97383.88;;;31.68;50.78
82171;BME280;71755;48.038;14.346;2023-08-24T11:44:56;97385.31;;;31.45;50.60
82171;BME280;71755;48.038;14.346;2023-08-24T11:47:23;97374.38;;;31.62;49.50
82171;BME280;71755;48.038;14.346;2023-08-24T11:49:50;97369.94;;;31.44;49.70
82171;BME280;71755;48.038;14.346;2023-08-24T11:52:20;97365.78;;;31.75;48.01
82171;BME280;71755;48.038;14.346;2023-08-24T11:54:46;97361.69;;;31.54;52.58
82171;BME280;71755;48.038;14.346;2023-08-24T11:57:12;97363.75;;;31.64;50.69
82171;BME280;71755;48.038;14.346;2023-08-24T11:59:39;97357.53;;;31.89;49.47
82171;BME280;71755;48.038;14.346;2023-08-24T12:02:14;97359.97;;;32.08;48.37
82171;BME280;71755;48.038;14.346;2023-08-24T12:04:43;97348.25;;;32.40;47.77
82171;BME280;71755;48.038;14.346;2023-08-24T12:07:11;97347.41;;;32.32;47.28
82171;BME280;71755;48.038;14.346;2023-08-24T12:09:40;97347.44;;;32.36;47.31
82171;BME280;71755;48.038;14.346;2023-08-24T12:12:17;97350.19;;;32.28;47.11
82171;BME280;71755;48.038;14.346;2023-08-24T12:14:51;97352.97;;;32.36;47.64
82171;BME280;71755;48.038;14.346;2023-08-24T12:17:18;97347.06;;;32.48;48.55
82171;BME280;71755;48.038;14.346;2023-08-24T12:19:56;97351.78;;;32.69;50.71
82171;BME280;71755;48.038;14.346;2023-08-24T12:22:23;97343.09;;;32.70;46.54
82171;BME280;71755;48.038;14.346;2023-08-24T12:24:49;97347.44;;;32.57;47.49
82171;BME280;71755;48.038;14.346;2023-08-24T12:27:25;97342.72;;;32.72;46.11
82171;BME280;71755;48.038;14.346;2023-08-24T12:30:03;97338.78;;;32.94;49.07
82171;BME280;71755;48.038;14.346;2023-08-24T12:32:48;97336.81;;;32.98;46.07
82171;BME280;71755;48.038;14.346;2023-08-24T12:35:19;97330.06;;;33.06;45.65
82171;BME280;71755;48.038;14.346;2023-08-24T12:37:54;97331.66;;;32.75;45.85
82171;BME280;71755;48.038;14.346;2023-08-24T12:40:23;97319.03;;;32.74;47.54
82171;BME280;71755;48.038;14.346;2023-08-24T12:42:51;97300.06;;;32.73;47.29
82171;BME280;71755;48.038;14.346;2023-08-24T12:45:21;97301.25;;;32.89;47.83
82171;BME280;71755;48.038;14.346;2023-08-24T12:47:48;97279.47;;;32.67;49.10
82171;BME280;71755;48.038;14.346;2023-08-24T12:50:23;97277.91;;;32.69;49.15
82171;BME280;71755;48.038;14.346;2023-08-24T12:52:59;97277.53;;;32.88;46.65
82171;BME280;71755;48.038;14.346;2023-08-24T12:55:38;97269.97;;;33.07;44.77
82171;BME280;71755;48.038;14.346;2023-08-24T12:58:10;97266.81;;;33.12;46.19
82171;BME280;71755;48.038;14.346;2023-08-24T13:00:38;97266.75;;;33.26;47.42
82171;BME280;71755;48.038;14.346;2023-08-24T13:03:04;97259.63;;;33.25;48.78
82171;BME280;71755;48.038;14.346;2023-08-24T13:05:37;97262.00;;;33.26;44.69
82171;BME280;71755;48.038;14.346;2023-08-24T13:08:10;97260.84;;;33.17;44.93
82171;BME280;71755;48.038;14.346;2023-08-24T13:10:38;97260.81;;;33.31;45.15
82171;BME280;71755;48.038;14.346;2023-08-24T13:13:11;97252.47;;;33.42;45.38
82171;BME280;71755;48.038;14.346;2023-08-24T13:15:39;97252.47;;;33.42;45.74
82171;BME280;71755;48.038;14.346;2023-08-24T13:18:09;97250.47;;;33.42;46.73
82171;BME280;71755;48.038;14.346;2023-08-24T13:20:40;97243.75;;;33.47;46.61
82171;BME280;71755;48.038;14.346;2023-08-24T13:23:12;97239.78;;;33.44;48.04
82171;BME280;71755;48.038;14.346;2023-08-24T13:25:41;97227.13;;;33.50;45.30
82171;BME280;71755;48.038;14.346;2023-08-24T13:28:08;97227.91;;;33.54;45.11
82171;BME280;71755;48.038;14.346;2023-08-24T13:30:34;97216.41;;;33.56;44.39
82171;BME280;71755;48.038;14.346;2023-08-24T13:33:15;97215.16;;;33.64;47.43
82171;BME280;71755;48.038;14.346;2023-08-24T13:35:46;97208.94;;;33.49;48.15
82171;BME280;71755;48.038;14.346;2023-08-24T13:38:23;97204.97;;;33.43;47.41
82171;BME280;71755;48.038;14.346;2023-08-24T13:40:49;97200.28;;;33.37;49.23